Time;durP1;ratioP1;P1;durP2;ratioP2;P2;SDS_P1;SDS_P2;PMS_P1;PMS_P2;Temp;Humidity;BMP_temperature;BMP_pressure;BME280_temperature;BME280_humidity;BME280_pressure;Samples;Min_cycle;Max_cycle;Signal;HPM_P1;HPM_P2
2022/09/04 00:02:39;;;;;;;17.70;9.60;;;;;;;11.40;68.72;100179.64;108592;1281;22570;-57
2022/09/04 00:05:20;;;;;;;14.70;10.40;;;;;;;11.32;68.98;100183.94;108656;1281;22473;-57
2022/09/04 00:08:12;;;;;;;13.50;9.30;;;;;;;11.24;69.38;100182.32;108477;1281;22576;-57
2022/09/04 00:10:55;;;;;;;18.50;11.20;;;;;;;11.19;69.50;100191.06;108350;1282;138502;-57
2022/09/04 00:13:26;;;;;;;16.10;10.70;;;;;;;11.14;69.50;100192.05;108436;1283;23177;-57
2022/09/04 00:15:58;;;;;;;17.30;9.90;;;;;;;11.10;69.68;100191.34;108351;1281;139607;-57
2022/09/04 00:18:29;;;;;;;16.70;10.90;;;;;;;11.06;69.80;100195.64;108451;1281;22477;-57
2022/09/04 00:21:10;;;;;;;16.00;10.70;;;;;;;11.03;69.97;100194.91;108382;1281;139171;-57
2022/09/04 00:23:52;;;;;;;19.20;11.90;;;;;;;10.98;70.26;100193.79;109137;1276;22431;-57
2022/09/04 00:26:40;;;;;;;15.20;10.00;;;;;;;10.96;70.52;100194.73;109216;1276;22460;-57
2022/09/04 00:29:29;;;;;;;13.80;10.20;;;;;;;10.94;70.54;100191.89;109071;1275;22563;-57
2022/09/04 00:32:23;;;;;;;17.70;10.70;;;;;;;10.94;70.83;100189.42;109105;1276;23387;-57
2022/09/04 00:35:09;;;;;;;17.80;10.90;;;;;;;10.93;70.81;100191.48;108864;1276;138219;-58
2022/09/04 00:37:38;;;;;;;21.60;10.50;;;;;;;10.92;71.03;100194.45;109048;1278;22468;-57
2022/09/04 00:40:40;;;;;;;16.30;10.40;;;;;;;10.91;71.08;100194.26;107151;1277;139469;-57
2022/09/04 00:43:37;;;;;;;19.30;11.20;;;;;;;10.89;71.12;100197.65;104746;1277;22568;-56
2022/09/04 00:46:24;;;;;;;17.90;11.60;;;;;;;10.87;71.16;100197.67;104725;1277;139326;-56
2022/09/04 00:49:10;;;;;;;17.00;10.60;;;;;;;10.85;71.41;100195.27;104616;1280;22754;-57
2022/09/04 00:51:45;;;;;;;17.90;11.00;;;;;;;10.81;71.33;100196.58;104510;1280;138529;-56
2022/09/04 00:54:45;;;;;;;21.90;12.40;;;;;;;10.77;71.41;100193.60;104612;1280;23058;-56
2022/09/04 00:57:56;;;;;;;19.10;10.90;;;;;;;10.73;71.49;100194.83;104467;1280;139795;-56
2022/09/04 01:00:25;;;;;;;21.60;10.70;;;;;;;10.68;71.67;100195.23;108498;1282;22488;-58
2022/09/04 01:03:19;;;;;;;21.10;12.10;;;;;;;10.63;71.78;100194.30;108852;1280;140734;-57
2022/09/04 01:06:04;;;;;;;20.20;12.00;;;;;;;10.60;71.77;100195.23;108812;1280;22569;-57
2022/09/04 01:09:10;;;;;;;19.80;12.00;;;;;;;10.55;71.72;100195.00;108635;1280;138925;-57
2022/09/04 01:11:51;;;;;;;22.60;12.50;;;;;;;10.49;71.90;100194.70;108871;1280;22478;-57
2022/09/04 01:14:24;;;;;;;19.60;12.10;;;;;;;10.45;71.81;100193.06;108937;1279;22444;-57
2022/09/04 01:17:00;;;;;;;17.20;11.70;;;;;;;10.40;71.91;100192.90;108757;1280;138768;-57
2022/09/04 01:19:51;;;;;;;23.90;12.10;;;;;;;10.34;72.00;100193.98;108788;1279;22497;-57
2022/09/04 01:22:28;;;;;;;21.90;12.70;;;;;;;10.30;71.86;100193.23;108429;1281;139481;-57
2022/09/04 01:25:21;;;;;;;21.70;12.90;;;;;;;10.24;71.98;100190.81;108711;1280;22492;-57
2022/09/04 01:28:17;;;;;;;19.10;12.00;;;;;;;10.18;72.09;100195.16;109139;1275;140477;-57
2022/09/04 01:30:58;;;;;;;22.00;12.90;;;;;;;10.15;72.28;100193.36;109225;1276;23258;-57
2022/09/04 01:33:53;;;;;;;19.00;11.80;;;;;;;10.10;72.07;100192.92;109036;1275;138602;-57
2022/09/04 01:36:33;;;;;;;21.90;11.70;;;;;;;10.05;72.21;100191.17;109256;1277;22516;-57
2022/09/04 01:39:00;;;;;;;18.00;12.20;;;;;;;9.98;72.33;100187.98;109029;1277;140768;-57
2022/09/04 01:42:26;;;;;;;18.10;13.00;;;;;;;9.94;72.45;100185.77;105103;1277;22556;-57
2022/09/04 01:44:53;;;;;;;18.90;12.70;;;;;;;9.90;72.74;100185.20;104323;1282;138833;-57
2022/09/04 01:47:22;;;;;;;;;;;;;;;9.88;72.76;100188.08;104363;1283;22563;-57
2022/09/04 01:50:03;;;;;;;22.90;11.90;;;;;;;9.85;72.82;100188.27;108655;1281;22604;-57
2022/09/04 01:52:49;;;;;;;24.30;13.30;;;;;;;9.79;72.83;100188.41;108726;1280;138671;-57
2022/09/04 01:55:25;;;;;;;22.80;13.10;;;;;;;9.74;72.93;100190.48;108541;1281;23324;-57
2022/09/04 01:57:57;;;;;;;20.60;13.20;;;;;;;9.70;73.08;100186.39;108709;1280;139454;-57
2022/09/04 02:00:24;;;;;;;19.20;12.30;;;;;;;9.66;73.13;100186.56;108734;1280;22620;-57
2022/09/04 02:03:21;;;;;;;21.30;12.90;;;;;;;9.60;73.12;100182.14;108565;1280;139536;-57
2022/09/04 02:06:21;;;;;;;21.30;12.70;;;;;;;9.56;73.18;100188.23;108614;1282;22549;-58
2022/09/04 02:08:50;;;;;;;19.60;13.10;;;;;;;9.52;73.42;100188.45;108590;1281;139752;-57
2022/09/04 02:11:18;;;;;;;26.70;13.20;;;;;;;9.49;73.53;100186.30;108585;1281;23591;-57
2022/09/04 02:14:14;;;;;;;19.90;12.70;;;;;;;9.47;73.64;100185.25;108594;1280;22423;-58
2022/09/04 02:17:03;;;;;;;24.50;12.80;;;;;;;9.44;73.59;100184.41;108596;1281;139335;-58
2022/09/04 02:19:33;;;;;;;18.90;11.90;;;;;;;9.39;73.63;100186.02;108728;1277;22707;-58
2022/09/04 02:22:22;;;;;;;21.40;12.60;;;;;;;9.36;73.67;100191.09;109138;1277;139459;-58
2022/09/04 02:25:13;;;;;;;18.60;12.00;;;;;;;9.33;73.76;100189.19;109025;1277;22419;-58
2022/09/04 02:27:52;;;;;;;18.50;11.60;;;;;;;9.32;73.80;100189.21;109240;1275;140569;-58
2022/09/04 02:30:19;;;;;;;21.30;13.10;;;;;;;9.29;73.80;100185.98;109340;1274;22497;-57
2022/09/04 02:32:57;;;;;;;25.50;13.50;;;;;;;9.29;73.95;100189.72;109008;1277;138724;-58
2022/09/04 02:35:40;;;;;;;20.20;12.50;;;;;;;9.27;73.84;100187.57;109325;1274;22454;-58
2022/09/04 02:38:52;;;;;;;24.70;13.00;;;;;;;9.21;73.83;100186.34;109360;1275;23273;-58
2022/09/04 02:41:37;;;;;;;19.80;12.80;;;;;;;9.16;74.01;100187.50;104630;1282;25233;-61
2022/09/04 02:44:35;;;;;;;20.40;12.20;;;;;;;9.13;74.07;100184.86;107448;1282;1413505;-62
2022/09/04 02:48:36;;;;;;;22.90;12.10;;;;;;;9.12;74.14;100187.29;101817;1310;545273;-61
2022/09/04 02:51:12;;;;;;;24.40;12.80;;;;;;;9.06;74.10;100197.85;103894;1287;140068;-61
2022/09/04 02:53:50;;;;;;;23.20;12.90;;;;;;;9.02;74.25;100195.85;108206;1287;22478;-61
2022/09/04 02:56:25;;;;;;;19.50;12.40;;;;;;;8.98;74.27;100200.30;108192;1287;23193;-62
2022/09/04 02:58:56;;;;;;;19.90;12.80;;;;;;;8.94;74.31;100198.16;108006;1287;137697;-61
2022/09/04 03:01:31;;;;;;;20.30;12.20;;;;;;;8.91;74.61;100199.79;107092;1286;1326142;-61
2022/09/04 03:04:48;;;;;;;23.10;13.50;;;;;;;8.88;74.73;100200.08;108079;1284;138827;-62
2022/09/04 03:07:30;;;;;;;24.40;12.50;;;;;;;8.87;74.82;100203.09;107093;1297;22570;-62
2022/09/04 03:10:10;;;;;;;24.70;14.00;;;;;;;8.84;74.68;100204.26;106915;1295;139468;-61
2022/09/04 03:12:59;;;;;;;27.10;13.30;;;;;;;8.81;74.78;100202.66;107041;1297;22452;-62
2022/09/04 03:15:33;;;;;;;25.40;13.80;;;;;;;8.79;74.90;100202.30;106999;1295;139172;-61
2022/09/04 03:18:15;;;;;;;23.70;13.00;;;;;;;8.78;75.10;100202.48;107104;1296;23138;-61
2022/09/04 03:20:56;;;;;;;20.20;12.70;;;;;;;8.76;75.05;100201.70;107309;1292;138914;-61
2022/09/04 03:23:38;;;;;;;21.70;13.80;;;;;;;8.72;75.09;100198.23;107195;1291;22441;-61
2022/09/04 03:26:30;;;;;;;20.40;12.10;;;;;;;8.69;75.07;100198.52;107332;1292;22453;-62
2022/09/04 03:28:59;;;;;;;26.60;13.00;;;;;;;8.67;75.09;100199.93;107469;1292;22439;-62
2022/09/04 03:31:47;;;;;;;20.90;13.10;;;;;;;8.66;75.13;100198.69;107501;1292;22513;-62
2022/09/04 03:34:33;;;;;;;28.40;12.70;;;;;;;8.64;75.25;100199.53;107460;1292;138755;-61
2022/09/04 03:37:03;;;;;;;21.90;12.90;;;;;;;8.63;75.38;100204.71;107420;1292;22552;-61
2022/09/04 03:39:45;;;;;;;22.90;13.10;;;;;;;8.63;75.47;100209.56;106506;1294;139408;-61
2022/09/04 03:42:19;;;;;;;25.40;13.00;;;;;;;8.63;75.67;100212.28;103408;1292;25772;-61
2022/09/04 03:45:25;;;;;;;24.10;12.10;;;;;;;8.65;75.79;100212.98;103609;1287;139858;-61
2022/09/04 03:48:07;;;;;;;23.00;12.80;;;;;;;8.65;75.92;100215.76;104290;1283;22563;-62
2022/09/04 03:50:42;;;;;;;22.70;12.70;;;;;;;8.67;75.89;100217.64;104363;1281;139912;-61
2022/09/04 03:53:34;;;;;;;18.90;12.60;;;;;;;8.68;75.82;100216.52;104081;1286;25386;-61
2022/09/04 03:56:19;;;;;;;21.70;13.40;;;;;;;8.68;75.89;100215.92;104359;1284;25654;-61
2022/09/04 03:59:01;;;;;;;23.60;13.50;;;;;;;8.69;76.22;100215.45;104333;1284;138738;-61
2022/09/04 04:01:50;;;;;;;29.80;15.00;;;;;;;8.74;76.44;100215.98;104309;1282;22755;-61
2022/09/04 04:04:35;;;;;;;25.80;15.30;;;;;;;8.79;76.56;100215.08;104346;1284;138530;-61
2022/09/04 04:07:16;;;;;;;27.70;16.60;;;;;;;8.88;76.82;100216.77;104301;1284;23000;-61
2022/09/04 04:10:02;;;;;;;24.80;14.60;;;;;;;8.95;76.92;100217.38;104076;1284;139283;-61
2022/09/04 04:12:59;;;;;;;29.10;15.60;;;;;;;9.03;77.23;100214.79;104366;1284;23522;-61
2022/09/04 04:15:49;;;;;;;28.40;16.30;;;;;;;9.12;77.17;100218.83;107948;1288;139130;-61
2022/09/04 04:18:18;;;;;;;23.50;15.20;;;;;;;9.22;77.33;100222.02;108002;1288;22479;-61
2022/09/04 04:21:09;;;;;;;30.50;16.50;;;;;;;9.37;77.57;100226.88;107870;1288;139157;-62
2022/09/04 04:23:48;;;;;;;28.00;14.90;;;;;;;9.58;77.78;100226.06;107993;1289;22573;-61
2022/09/04 04:26:20;;;;;;;22.70;13.80;;;;;;;9.83;77.72;100233.73;107910;1289;22488;-61
2022/09/04 04:29:19;;;;;;;26.10;15.50;;;;;;;10.06;77.40;100233.73;107967;1287;138700;-61
2022/09/04 04:32:10;;;;;;;21.60;14.00;;;;;;;10.33;76.78;100235.19;107747;1289;23087;-62
2022/09/04 04:34:48;;;;;;;22.70;13.80;;;;;;;10.60;76.54;100235.29;107811;1289;141209;-62
2022/09/04 04:37:42;;;;;;;23.50;14.30;;;;;;;10.93;75.91;100238.84;107860;1289;22489;-62
2022/09/04 04:40:16;;;;;;;22.60;12.60;;;;;;;11.31;74.98;100239.23;108418;1283;140011;-61
2022/09/04 04:42:52;;;;;;;21.40;11.40;;;;;;;11.68;74.16;100238.64;108401;1282;23142;-62
2022/09/04 04:48:25;;;;;;;20.50;11.40;;;;;;;12.47;71.73;100239.79;108344;1281;22467;-62
2022/09/04 04:51:02;;;;;;;19.30;9.90;;;;;;;12.79;70.14;100232.83;108403;1284;139954;-62
2022/09/04 04:53:50;;;;;;;21.30;10.70;;;;;;;13.05;69.03;100234.44;108803;1277;22428;-62
2022/09/04 04:56:25;;;;;;;16.00;10.10;;;;;;;13.28;68.14;100234.93;109101;1277;22451;-62
2022/09/04 04:59:19;;;;;;;19.10;10.00;;;;;;;13.40;67.82;100238.00;109069;1277;138409;-61
2022/09/04 05:02:24;;;;;;;17.00;9.40;;;;;;;13.51;67.03;100238.06;109150;1277;22471;-62
2022/09/04 05:04:56;;;;;;;15.40;8.10;;;;;;;13.66;66.32;100241.05;108999;1277;138360;-61
2022/09/04 05:07:47;;;;;;;12.80;8.00;;;;;;;13.78;64.64;100240.05;109195;1277;22559;-62
2022/09/04 05:10:17;;;;;;;13.40;7.80;;;;;;;13.94;63.87;100240.17;108998;1277;138008;-62
2022/09/04 05:13:08;;;;;;;9.80;6.90;;;;;;;14.05;63.37;100245.13;109157;1277;23207;-62
2022/09/04 05:15:40;;;;;;;11.40;7.40;;;;;;;14.17;63.01;100245.27;109006;1277;137574;-62
2022/09/04 05:18:34;;;;;;;8.30;5.90;;;;;;;14.31;62.72;100251.55;108999;1277;22437;-62
2022/09/04 05:21:07;;;;;;;14.00;6.60;;;;;;;14.43;61.65;100254.61;108873;1277;139248;-62
2022/09/04 05:23:51;;;;;;;9.80;5.00;;;;;;;14.56;61.07;100252.11;109067;1278;22552;-62
2022/09/04 05:26:42;;;;;;;6.40;4.60;;;;;;;14.74;60.36;100250.01;109064;1277;22449;-62
2022/09/04 05:29:23;;;;;;;8.20;4.40;;;;;;;14.92;59.03;100252.27;109183;1277;22492;-62
2022/09/04 05:32:01;;;;;;;15.10;4.20;;;;;;;15.03;57.74;100251.81;108879;1277;22441;-62
2022/09/04 05:34:46;;;;;;;8.20;4.30;;;;;;;15.13;56.81;100252.45;108925;1277;138590;-62
2022/09/04 05:37:31;;;;;;;7.60;4.30;;;;;;;15.23;56.35;100255.13;108945;1277;22465;-62
2022/09/04 05:40:02;;;;;;;7.30;4.50;;;;;;;15.37;55.72;100256.52;109038;1277;138166;-62
2022/09/04 05:42:32;;;;;;;7.30;4.50;;;;;;;15.43;55.15;100254.52;109019;1277;22438;-62
2022/09/04 05:45:27;;;;;;;6.10;4.40;;;;;;;15.48;54.61;100254.83;109044;1277;139625;-62
2022/09/04 05:48:08;;;;;;;8.80;4.30;;;;;;;15.48;54.19;100263.40;109105;1277;23347;-62
2022/09/04 05:50:45;;;;;;;7.20;5.00;;;;;;;15.45;53.91;100263.73;109037;1277;138279;-62
2022/09/04 05:53:18;;;;;;;;;;;;;;;15.40;53.98;100267.30;109082;1277;22487;-62
2022/09/04 05:56:22;;;;;;;5.70;4.00;;;;;;;15.35;53.73;100274.20;109224;1277;22499;-62
2022/09/04 05:58:56;;;;;;;10.40;5.00;;;;;;;15.29;53.61;100273.09;109097;1277;138751;-62
2022/09/04 06:01:34;;;;;;;11.00;4.40;;;;;;;15.24;53.32;100275.44;108929;1278;22563;-62
2022/09/04 06:04:04;;;;;;;14.50;4.50;;;;;;;15.18;53.60;100276.45;109072;1277;137927;-62
2022/09/04 06:06:39;;;;;;;8.50;4.00;;;;;;;15.19;53.57;100279.53;108964;1278;22704;-62
2022/09/04 06:09:25;;;;;;;6.60;3.60;;;;;;;15.19;53.14;100285.02;108855;1278;138265;-62
2022/09/04 06:12:09;;;;;;;10.90;3.30;;;;;;;15.17;52.56;100283.48;109065;1277;22511;-63
2022/09/04 06:14:56;;;;;;;5.70;3.70;;;;;;;15.14;52.27;100280.14;109117;1277;23229;-62
2022/09/04 06:18:17;;;;;;;5.70;2.70;;;;;;;15.15;52.14;100282.27;109160;1277;22509;-61
2022/09/04 06:20:56;;;;;;;4.30;2.50;;;;;;;15.17;51.49;100285.67;108313;1284;138290;-62
2022/09/04 06:23:42;;;;;;;5.00;2.30;;;;;;;15.18;50.32;100287.55;108542;1283;23764;-62
2022/09/04 06:26:17;;;;;;;4.90;2.50;;;;;;;15.17;49.82;100286.77;108493;1283;22485;-62
2022/09/04 06:29:14;;;;;;;4.00;2.10;;;;;;;15.18;49.72;100289.41;108515;1283;138154;-62
2022/09/04 06:32:14;;;;;;;5.60;2.10;;;;;;;15.19;48.95;100292.22;108399;1283;23641;-62
2022/09/04 06:35:15;;;;;;;3.70;2.60;;;;;;;15.25;48.58;100297.19;107543;1289;138917;-62
2022/09/04 06:37:50;;;;;;;6.90;2.80;;;;;;;15.31;47.80;100296.59;107081;1295;22501;-62
2022/09/04 06:40:28;;;;;;;8.00;2.80;;;;;;;15.36;47.57;100298.75;106942;1294;138400;-62
2022/09/04 06:43:07;;;;;;;5.60;2.90;;;;;;;15.37;47.43;100296.45;107081;1293;22505;-62
2022/09/04 06:45:58;;;;;;;5.70;2.80;;;;;;;15.40;47.05;100293.50;107015;1293;137943;-62
2022/09/04 06:48:38;;;;;;;6.70;2.50;;;;;;;15.46;47.00;100290.64;107292;1293;23260;-62
2022/09/04 06:51:35;;;;;;;5.20;2.70;;;;;;;15.50;46.61;100294.67;107087;1292;137849;-62
2022/09/04 06:54:25;;;;;;;3.70;2.30;;;;;;;15.53;46.16;100300.17;107436;1290;22581;-62
2022/09/04 06:57:30;;;;;;;4.70;2.30;;;;;;;15.54;46.65;100303.31;107820;1289;137806;-62
2022/09/04 07:00:28;;;;;;;262.30;152.30;;;;;;;15.59;46.22;100303.83;107129;1296;22527;-62
2022/09/04 07:03:01;;;;;;;15.30;8.70;;;;;;;15.63;45.87;100303.34;107013;1293;139430;-62
2022/09/04 07:05:32;;;;;;;8.20;4.10;;;;;;;15.68;46.00;100302.81;107106;1297;22600;-62
2022/09/04 07:08:26;;;;;;;5.40;3.20;;;;;;;15.75;45.87;100301.23;107152;1295;22423;-62
2022/09/04 07:11:11;;;;;;;8.90;3.20;;;;;;;15.85;46.29;100305.95;107056;1290;137870;-62
2022/09/04 07:14:18;;;;;;;6.30;4.00;;;;;;;15.93;46.50;100308.65;107709;1284;22449;-62
2022/09/04 07:17:10;;;;;;;4.90;3.50;;;;;;;16.03;45.96;100307.11;108228;1285;139101;-62
2022/09/04 07:19:55;;;;;;;4.60;3.00;;;;;;;16.08;45.39;100307.06;108145;1285;23290;-62
2022/09/04 07:22:43;;;;;;;7.10;4.00;;;;;;;16.10;44.59;100304.04;108386;1283;138538;-63
2022/09/04 07:25:43;;;;;;;5.70;3.00;;;;;;;16.08;43.87;100303.98;108486;1284;23251;-63
2022/09/04 07:28:47;;;;;;;4.50;2.50;;;;;;;16.03;44.08;100298.75;108550;1281;138578;-63
2022/09/04 07:31:46;;;;;;;7.70;3.30;;;;;;;16.04;43.93;100302.98;108642;1281;22475;-62
2022/09/04 07:34:35;;;;;;;3.40;2.10;;;;;;;16.05;43.48;100303.82;108425;1281;137849;-62
2022/09/04 07:37:08;;;;;;;11.00;6.50;;;;;;;16.03;43.58;100306.17;109248;1274;22350;-62
2022/09/04 07:39:51;;;;;;;5.40;2.10;;;;;;;16.03;43.54;100308.27;109112;1274;138139;-62
2022/09/04 07:42:45;;;;;;;4.80;3.00;;;;;;;16.07;43.45;100306.67;109290;1274;22478;-62
2022/09/04 07:45:34;;;;;;;4.00;2.10;;;;;;;16.07;43.72;100306.13;109207;1274;138914;-62
2022/09/04 07:48:09;;;;;;;4.40;2.00;;;;;;;16.12;43.94;100304.70;109389;1274;22488;-61
2022/09/04 07:51:08;;;;;;;4.00;2.60;;;;;;;16.19;43.87;100303.91;109342;1274;22566;-61
2022/09/04 07:54:00;;;;;;;4.30;2.80;;;;;;;16.30;43.53;100299.80;109323;1274;23272;-62
2022/09/04 07:56:47;;;;;;;15.00;8.50;;;;;;;16.36;43.09;100293.85;109362;1274;22501;-62
2022/09/04 07:59:26;;;;;;;4.90;3.40;;;;;;;16.38;42.95;100296.98;109235;1274;22497;-62
2022/09/04 08:02:23;;;;;;;9.80;5.70;;;;;;;16.41;43.24;100304.79;109353;1274;22461;-62
2022/09/04 08:05:16;;;;;;;7.80;2.30;;;;;;;16.44;43.39;100306.77;109327;1274;138272;-62
2022/09/04 08:08:02;;;;;;;3.70;2.10;;;;;;;16.46;42.86;100302.69;109274;1274;23556;-62
2022/09/04 08:11:06;;;;;;;3.40;2.40;;;;;;;16.45;42.80;100300.36;109221;1274;138952;-62
2022/09/04 08:13:58;;;;;;;3.00;1.90;;;;;;;16.48;43.17;100306.09;109271;1276;22467;-61
2022/09/04 08:16:39;;;;;;;6.00;1.70;;;;;;;16.55;43.00;100306.96;109128;1274;138115;-62
2022/09/04 08:19:25;;;;;;;3.00;1.40;;;;;;;16.58;41.11;100313.01;109277;1274;22601;-61
2022/09/04 08:21:52;;;;;;;3.60;1.90;;;;;;;16.57;41.47;100312.63;109201;1274;137784;-62
2022/09/04 08:24:44;;;;;;;4.70;1.90;;;;;;;16.58;42.02;100315.55;109376;1274;22470;-62
2022/09/04 08:27:46;;;;;;;3.20;2.20;;;;;;;16.64;41.25;100316.82;109371;1274;141526;-62
2022/09/04 08:30:13;;;;;;;6.00;3.60;;;;;;;16.66;41.56;100317.09;109361;1274;22476;-61
2022/09/04 08:33:17;;;;;;;5.50;2.70;;;;;;;16.68;41.59;100312.25;109113;1274;138238;-61
2022/09/04 08:36:06;;;;;;;4.10;2.90;;;;;;;16.73;41.40;100308.73;109313;1274;22517;-61
2022/09/04 08:39:05;;;;;;;6.10;3.60;;;;;;;16.71;41.86;100301.41;109262;1276;22467;-61
2022/09/04 08:41:55;;;;;;;2.70;2.10;;;;;;;16.72;42.44;100303.55;109304;1274;22484;-61
2022/09/04 08:44:43;;;;;;;2.60;1.50;;;;;;;16.77;42.03;100309.30;109324;1274;22231;-62
2022/09/04 08:47:34;;;;;;;4.90;2.30;;;;;;;16.79;41.33;100302.26;109280;1276;23250;-61
2022/09/04 08:50:37;;;;;;;3.80;2.50;;;;;;;16.75;41.50;100305.34;109210;1276;22545;-61
2022/09/04 08:53:13;;;;;;;3.90;1.80;;;;;;;16.78;41.39;100302.30;109089;1276;137559;-61
2022/09/04 08:56:04;;;;;;;7.40;2.40;;;;;;;16.83;40.41;100299.06;109257;1276;23518;-62
2022/09/04 08:58:40;;;;;;;3.80;2.30;;;;;;;16.85;40.54;100297.73;108471;1280;138606;-61
2022/09/04 09:01:48;;;;;;;3.10;1.80;;;;;;;16.86;40.14;100298.00;108884;1277;22569;-62
2022/09/04 09:04:35;;;;;;;2.00;1.80;;;;;;;16.80;39.94;100298.73;108783;1279;138392;-62
2022/09/04 09:07:15;;;;;;;3.90;2.20;;;;;;;16.69;39.15;100302.34;108962;1277;22595;-62
2022/09/04 09:09:44;;;;;;;1.70;1.40;;;;;;;16.64;39.54;100302.63;108958;1277;138733;-62
2022/09/04 09:12:56;;;;;;;3.90;1.50;;;;;;;16.65;39.86;100296.13;108724;1281;22698;-62
2022/09/04 09:15:38;;;;;;;2.00;1.60;;;;;;;16.77;39.72;100295.48;108424;1282;138352;-62
2022/09/04 09:18:24;;;;;;;2.70;2.40;;;;;;;16.91;38.23;100293.06;108267;1283;22463;-62
2022/09/04 09:21:07;;;;;;;3.20;1.60;;;;;;;16.99;38.11;100298.61;108404;1283;138669;-62
2022/09/04 09:23:37;;;;;;;6.30;1.50;;;;;;;17.07;38.58;100297.19;108531;1283;23369;-62
2022/09/04 09:26:16;;;;;;;3.30;1.50;;;;;;;17.16;37.68;100292.59;108478;1282;22497;-62
2022/09/04 09:28:49;;;;;;;1.40;1.30;;;;;;;17.22;37.79;100289.80;108366;1283;137860;-61
2022/09/04 09:31:25;;;;;;;4.60;1.60;;;;;;;17.29;37.92;100289.61;108306;1286;22683;-62
2022/09/04 09:34:29;;;;;;;14.90;6.30;;;;;;;17.40;37.53;100293.52;108290;1283;138531;-62
2022/09/04 09:37:07;;;;;;;19.70;13.40;;;;;;;17.47;37.23;100284.98;108841;1279;22553;-62
2022/09/04 09:39:34;;;;;;;3.70;2.00;;;;;;;17.50;37.01;100270.85;107672;1282;138187;-60
2022/09/04 09:42:30;;;;;;;4.10;2.80;;;;;;;17.54;36.80;100276.56;104555;1280;25237;-60
2022/09/04 09:45:39;;;;;;;4.10;2.10;;;;;;;17.58;37.27;100271.76;104141;1281;138515;-60
2022/09/04 09:48:21;;;;;;;7.70;5.30;;;;;;;17.63;36.68;100277.72;103951;1286;24368;-60
2022/09/04 09:51:13;;;;;;;7.20;4.70;;;;;;;17.66;36.90;100278.94;103910;1286;138989;-62
2022/09/04 09:53:46;;;;;;;4.30;2.00;;;;;;;17.67;37.28;100278.16;104447;1283;22605;-61
2022/09/04 09:56:34;;;;;;;2.20;1.70;;;;;;;17.72;36.69;100280.39;104492;1281;24071;-62
2022/09/04 09:59:24;;;;;;;2.50;1.40;;;;;;;17.74;36.13;100280.48;104385;1281;138315;-60
2022/09/04 10:02:36;;;;;;;3.20;1.70;;;;;;;17.70;36.07;100284.15;104507;1280;25427;-60
2022/09/04 10:05:21;;;;;;;3.40;2.50;;;;;;;17.62;35.81;100289.95;108204;1286;137891;-61
2022/09/04 10:08:00;;;;;;;2.00;1.70;;;;;;;17.53;36.46;100284.17;108290;1286;22754;-62
2022/09/04 10:10:39;;;;;;;4.70;2.50;;;;;;;17.53;36.68;100285.55;107929;1286;137931;-61
2022/09/04 10:13:27;;;;;;;5.40;2.00;;;;;;;17.58;36.78;100287.02;108299;1286;22490;-62
2022/09/04 10:16:14;;;;;;;2.60;1.70;;;;;;;17.59;36.28;100274.05;108181;1285;137637;-62
2022/09/04 10:19:06;;;;;;;4.60;2.40;;;;;;;17.63;36.76;100278.93;108087;1286;23256;-62
2022/09/04 10:22:00;;;;;;;1.60;1.40;;;;;;;17.71;36.71;100280.23;108253;1285;138904;-62
2022/09/04 10:24:52;;;;;;;3.50;1.60;;;;;;;17.82;37.22;100278.11;108387;1281;23676;-62
2022/09/04 10:27:37;;;;;;;5.10;1.80;;;;;;;17.94;36.62;100277.89;108570;1280;139402;-62
2022/09/04 10:30:19;;;;;;;2.40;1.60;;;;;;;18.01;36.39;100279.78;108676;1280;22452;-62
2022/09/04 10:33:03;;;;;;;7.50;1.50;;;;;;;18.00;36.27;100274.33;108415;1281;138923;-61
2022/09/04 10:36:07;;;;;;;2.90;1.90;;;;;;;17.92;36.61;100276.75;108712;1281;22642;-62
2022/09/04 10:42:08;;;;;;;4.70;1.50;;;;;;;17.69;36.53;100284.98;109314;1274;23312;-60
2022/09/04 10:44:47;;;;;;;2.90;1.70;;;;;;;17.59;36.96;100284.85;109126;1275;22483;-60
2022/09/04 10:47:23;;;;;;;3.40;1.60;;;;;;;17.55;37.22;100280.30;109396;1274;23769;-61
2022/09/04 10:49:58;;;;;;;3.10;1.80;;;;;;;17.56;37.50;100279.48;109355;1274;23267;-62
2022/09/04 10:52:32;;;;;;;3.10;1.70;;;;;;;17.62;37.18;100283.35;109325;1274;138758;-61
2022/09/04 10:55:17;;;;;;;1.90;1.20;;;;;;;17.72;36.89;100282.98;109313;1274;22446;-62
2022/09/04 10:57:58;;;;;;;4.30;2.00;;;;;;;17.75;36.67;100277.48;109270;1274;138090;-61
2022/09/04 11:01:12;;;;;;;2.70;1.80;;;;;;;17.74;36.27;100284.73;109296;1274;22490;-62
2022/09/04 11:04:13;;;;;;;2.00;1.40;;;;;;;17.70;36.64;100282.11;109239;1274;139635;-62
2022/09/04 11:07:04;;;;;;;2.90;1.90;;;;;;;17.70;36.77;100277.20;109380;1274;23157;-61
2022/09/04 11:09:33;;;;;;;2.10;1.80;;;;;;;17.72;36.79;100275.83;109097;1274;138915;-61
2022/09/04 11:12:12;;;;;;;2.10;1.50;;;;;;;17.79;36.40;100280.33;109230;1274;22542;-62
2022/09/04 11:14:43;;;;;;;2.10;1.80;;;;;;;17.88;36.42;100276.02;109352;1274;22532;-61
2022/09/04 11:17:27;;;;;;;1.40;1.20;;;;;;;17.96;35.63;100262.94;109239;1276;23306;-61
2022/09/04 11:20:15;;;;;;;2.10;1.60;;;;;;;18.01;36.14;100260.70;109341;1274;22492;-61
2022/09/04 11:23:11;;;;;;;3.10;1.70;;;;;;;18.10;36.32;100262.75;109036;1276;138698;-61
2022/09/04 11:26:06;;;;;;;2.30;1.70;;;;;;;18.21;35.98;100262.98;109208;1274;22660;-62
2022/09/04 11:28:43;;;;;;;2.60;1.70;;;;;;;18.27;35.81;100258.47;109222;1274;138490;-61
2022/09/04 11:31:34;;;;;;;2.80;1.80;;;;;;;18.31;36.11;100252.75;109406;1274;22389;-61
2022/09/04 11:34:18;;;;;;;1.90;1.50;;;;;;;18.35;36.20;100256.21;109218;1274;139337;-61
2022/09/04 11:37:08;;;;;;;4.50;1.50;;;;;;;18.39;36.05;100259.77;109178;1274;22462;-61
2022/09/04 11:39:57;;;;;;;6.80;1.50;;;;;;;18.42;35.67;100254.83;109045;1276;139424;-61
2022/09/04 11:42:28;;;;;;;2.00;1.30;;;;;;;18.40;36.02;100252.09;109272;1274;22509;-62
2022/09/04 11:45:15;;;;;;;2.30;1.50;;;;;;;18.37;35.94;100258.96;109211;1273;138836;-61
2022/09/04 11:48:04;;;;;;;3.20;1.50;;;;;;;18.29;35.39;100250.11;109279;1274;22557;-62
2022/09/04 11:50:55;;;;;;;2.60;1.40;;;;;;;18.19;35.72;100257.17;109112;1274;22464;-61
2022/09/04 11:53:45;;;;;;;4.50;1.90;;;;;;;18.06;35.72;100257.50;109183;1274;22409;-62
2022/09/04 11:56:54;;;;;;;1.30;1.20;;;;;;;17.94;36.09;100257.20;109187;1274;22471;-62
2022/09/04 12:00:11;;;;;;;2.90;1.50;;;;;;;17.85;36.59;100253.00;108720;1280;24036;-61
2022/09/04 12:02:56;;;;;;;1.60;1.30;;;;;;;17.85;36.64;100247.86;107975;1287;22498;-61
2022/09/04 12:05:38;;;;;;;6.50;2.20;;;;;;;17.91;36.25;100248.08;107959;1286;22467;-61
2022/09/04 12:08:30;;;;;;;11.10;8.90;;;;;;;18.01;35.45;100254.52;108059;1286;22678;-61
2022/09/04 12:11:17;;;;;;;9.80;6.70;;;;;;;18.13;35.29;100250.83;107875;1286;138949;-62
2022/09/04 12:13:46;;;;;;;5.00;3.60;;;;;;;18.23;34.61;100244.54;107994;1287;23065;-62
2022/09/04 12:16:16;;;;;;;6.20;3.90;;;;;;;18.25;34.80;100247.00;107812;1287;137597;-61
2022/09/04 12:19:12;;;;;;;8.10;5.70;;;;;;;18.22;34.89;100245.16;107976;1286;22484;-61
2022/09/04 12:22:00;;;;;;;6.80;3.50;;;;;;;18.14;35.23;100242.82;107859;1287;139852;-60
2022/09/04 12:24:26;;;;;;;4.10;1.90;;;;;;;18.09;35.91;100242.14;108067;1286;22457;-61
2022/09/04 12:27:06;;;;;;;4.70;2.30;;;;;;;18.08;36.26;100247.66;107912;1286;138848;-61
2022/09/04 12:29:54;;;;;;;6.50;2.90;;;;;;;18.10;36.88;100244.23;107825;1286;22473;-61
2022/09/04 12:32:41;;;;;;;3.00;1.80;;;;;;;18.15;36.53;100244.17;107973;1287;22510;-60
2022/09/04 12:35:25;;;;;;;2.80;1.70;;;;;;;18.19;36.40;100232.66;108002;1281;22527;-60
2022/09/04 12:38:23;;;;;;;3.40;1.30;;;;;;;18.22;36.70;100233.84;109198;1276;22536;-61
2022/09/04 12:40:57;;;;;;;7.20;1.50;;;;;;;18.29;36.76;100234.34;109237;1276;138125;-60